Terminal Aerodrome Forecast
Issued by NWS

Home | Current Version | Previous Version | Text Only | Print | Product List | Glossary On
Versions: 1 2 3 4 5 6 7 8 9 10 11 12
467
FTUS46 KPDT 292321
TAFPSC
TAF
KPSC 292321Z 3000/3024 34006KT P6SM FEW150
     FM301200 VRB03KT P6SM SCT180
     FM302100 23009KT P6SM FEW150 SCT250=

USA.gov is the U.S. government's official web portal to all federal, state and local government web resources and services.